CSN6904 LFPG-EDDM
Flight info
| Callsign | CSN6904 |
|---|---|
| Flight time | N/A |
| Altitude | 33000 |
| Route | LFPG/26R LANV6E LANVI DCT LUPEN T107 ROKIL ROKI1A EDDM/08L |
| Aircraft | A320/M-SDE3FGHIRWY/LB1 |
Departure
| Time | 2026-05-06 15:19 |
|---|---|
| Airport | Charles de Gaulle International Airport (LFPG) |
Arrival
| Time | N/A |
|---|---|
| Airport | Munich Airport (EDDM) |
| Time | Latitude | Longitude | Altitude | Speed | Heading |
|---|---|---|---|---|---|
| 2026-05-06 14:31 | 49.00523 | 2.56095 | 361 ft | 0 kts | 165° |
| 2026-05-06 15:06 | 49.00522 | 2.56095 | 355 ft | 1 kts | 165° |
| 2026-05-06 15:07 | 49.00525 | 2.56094 | 355 ft | 3 kts | 165° |
| 2026-05-06 15:07 | 49.00550 | 2.56080 | 356 ft | 4 kts | 150° |
| 2026-05-06 15:07 | 49.00570 | 2.56056 | 359 ft | 4 kts | 116° |
| 2026-05-06 15:07 | 49.00573 | 2.56029 | 357 ft | 1 kts | 71° |
| 2026-05-06 15:08 | 49.00571 | 2.56024 | 357 ft | 0 kts | 71° |
| 2026-05-06 15:10 | 49.00575 | 2.56041 | 364 ft | 4 kts | 71° |
| 2026-05-06 15:10 | 49.00588 | 2.56098 | 361 ft | 8 kts | 73° |
| 2026-05-06 15:10 | 49.00601 | 2.56198 | 355 ft | 11 kts | 70° |
| 2026-05-06 15:10 | 49.00624 | 2.56334 | 363 ft | 16 kts | 79° |
| 2026-05-06 15:11 | 49.00632 | 2.56519 | 355 ft | 20 kts | 87° |
| 2026-05-06 15:11 | 49.00642 | 2.56751 | 360 ft | 24 kts | 86° |
| 2026-05-06 15:11 | 49.00661 | 2.57024 | 355 ft | 28 kts | 83° |
| 2026-05-06 15:11 | 49.00745 | 2.57302 | 362 ft | 30 kts | 67° |
| 2026-05-06 15:12 | 49.00785 | 2.57633 | 360 ft | 34 kts | 75° |
| 2026-05-06 15:12 | 49.00837 | 2.57996 | 355 ft | 36 kts | 76° |
| 2026-05-06 15:12 | 49.00920 | 2.58325 | 356 ft | 31 kts | 82° |
| 2026-05-06 15:12 | 49.00935 | 2.58666 | 355 ft | 34 kts | 86° |
| 2026-05-06 15:13 | 49.00965 | 2.59037 | 360 ft | 36 kts | 69° |
| 2026-05-06 15:13 | 49.00971 | 2.59344 | 355 ft | 28 kts | 111° |
| 2026-05-06 15:13 | 49.00804 | 2.59408 | 355 ft | 28 kts | 177° |
| 2026-05-06 15:13 | 49.00598 | 2.59437 | 359 ft | 32 kts | 175° |
| 2026-05-06 15:14 | 49.00385 | 2.59463 | 355 ft | 21 kts | 175° |
| 2026-05-06 15:14 | 49.00299 | 2.59475 | 355 ft | 14 kts | 174° |
| 2026-05-06 15:14 | 49.00187 | 2.59487 | 358 ft | 18 kts | 179° |
| 2026-05-06 15:14 | 49.00049 | 2.59503 | 354 ft | 22 kts | 175° |
| 2026-05-06 15:15 | 48.99974 | 2.59603 | 361 ft | 10 kts | 66° |
| 2026-05-06 15:15 | 48.99997 | 2.59722 | 354 ft | 14 kts | 87° |
| 2026-05-06 15:15 | 49.00004 | 2.59888 | 361 ft | 18 kts | 85° |
| 2026-05-06 15:15 | 49.00015 | 2.60089 | 357 ft | 11 kts | 85° |
| 2026-05-06 15:16 | 49.00018 | 2.60223 | 358 ft | 15 kts | 89° |
| 2026-05-06 15:16 | 49.00009 | 2.60379 | 357 ft | 9 kts | 135° |
| 2026-05-06 15:16 | 48.99943 | 2.60395 | 354 ft | 9 kts | 195° |
| 2026-05-06 15:16 | 48.99941 | 2.60394 | 354 ft | 0 kts | 195° |
| 2026-05-06 15:17 | 48.99936 | 2.60391 | 354 ft | 3 kts | 197° |
| 2026-05-06 15:17 | 48.99904 | 2.60376 | 356 ft | 7 kts | 198° |
| 2026-05-06 15:17 | 48.99849 | 2.60327 | 360 ft | 12 kts | 224° |
| 2026-05-06 15:18 | 48.99834 | 2.60222 | 353 ft | 0 kts | 266° |
| 2026-05-06 15:18 | 48.99834 | 2.60220 | 353 ft | 1 kts | 266° |
| 2026-05-06 15:18 | 48.99821 | 2.59860 | 354 ft | 87 kts | 265° |
| 2026-05-06 15:18 | 48.99743 | 2.58460 | 360 ft | 172 kts | 265° |
| 2026-05-06 15:19 | 48.99624 | 2.56405 | 887 ft | 200 kts | 266° |
| 2026-05-06 15:19 | 48.99469 | 2.54188 | 1962 ft | 223 kts | 267° |
| 2026-05-06 15:19 | 48.99335 | 2.51712 | 2736 ft | 246 kts | 268° |
| 2026-05-06 15:19 | 48.99205 | 2.49070 | 3802 ft | 254 kts | 268° |
| 2026-05-06 15:20 | 48.99071 | 2.46356 | 4983 ft | 259 kts | 268° |
| 2026-05-06 15:20 | 48.98930 | 2.43585 | 6110 ft | 266 kts | 268° |
| 2026-05-06 15:20 | 48.98780 | 2.40746 | 7191 ft | 272 kts | 267° |
| 2026-05-06 15:20 | 48.98627 | 2.37891 | 8284 ft | 277 kts | 267° |
| 2026-05-06 15:21 | 48.98466 | 2.34947 | 9421 ft | 281 kts | 267° |
| 2026-05-06 15:21 | 48.98299 | 2.31954 | 10336 ft | 293 kts | 265° |
| 2026-05-06 15:21 | 48.97798 | 2.28817 | 10777 ft | 319 kts | 250° |
| 2026-05-06 15:21 | 48.96612 | 2.25829 | 11260 ft | 341 kts | 230° |
| 2026-05-06 15:22 | 48.94785 | 2.23458 | 12024 ft | 351 kts | 212° |
| 2026-05-06 15:22 | 48.92518 | 2.22028 | 12882 ft | 358 kts | 194° |
| 2026-05-06 15:22 | 48.90009 | 2.21728 | 13520 ft | 373 kts | 176° |
| 2026-05-06 15:22 | 48.87405 | 2.22691 | 13697 ft | 398 kts | 162° |
| 2026-05-06 15:23 | 48.84858 | 2.24452 | 13829 ft | 420 kts | 148° |
| 2026-05-06 15:23 | 48.82656 | 2.27449 | 14220 ft | 432 kts | 130° |
| 2026-05-06 15:23 | 48.81103 | 2.31370 | 14816 ft | 438 kts | 112° |
| 2026-05-06 15:23 | 48.80378 | 2.35854 | 15450 ft | 441 kts | 95° |
| 2026-05-06 15:24 | 48.80492 | 2.40511 | 16084 ft | 444 kts | 84° |
| 2026-05-06 15:24 | 48.80795 | 2.45190 | 16691 ft | 448 kts | 84° |
| 2026-05-06 15:24 | 48.81121 | 2.49905 | 17323 ft | 451 kts | 84° |
| 2026-05-06 15:24 | 48.81457 | 2.54659 | 17924 ft | 456 kts | 84° |
| 2026-05-06 15:25 | 48.81793 | 2.59462 | 18497 ft | 459 kts | 84° |
| 2026-05-06 15:25 | 48.82122 | 2.64298 | 19030 ft | 463 kts | 84° |
| 2026-05-06 15:25 | 48.82441 | 2.69172 | 19528 ft | 467 kts | 85° |
| 2026-05-06 15:25 | 48.82753 | 2.74094 | 20038 ft | 470 kts | 85° |
| 2026-05-06 15:26 | 48.83060 | 2.78977 | 20501 ft | 473 kts | 85° |
| 2026-05-06 15:26 | 48.83374 | 2.83962 | 20955 ft | 476 kts | 85° |
| 2026-05-06 15:26 | 48.83691 | 2.88981 | 21383 ft | 479 kts | 85° |
| 2026-05-06 15:26 | 48.84007 | 2.94034 | 21807 ft | 483 kts | 85° |
| 2026-05-06 15:27 | 48.84326 | 2.99124 | 22224 ft | 486 kts | 84° |
| 2026-05-06 15:27 | 48.84953 | 3.04182 | 22628 ft | 490 kts | 75° |
| 2026-05-06 15:27 | 48.85845 | 3.09184 | 23049 ft | 492 kts | 75° |
| 2026-05-06 15:27 | 48.86739 | 3.14211 | 23516 ft | 494 kts | 75° |
| 2026-05-06 15:28 | 48.87630 | 3.19264 | 23895 ft | 497 kts | 75° |
| 2026-05-06 15:28 | 48.88520 | 3.24346 | 24297 ft | 498 kts | 75° |
| 2026-05-06 15:28 | 48.89408 | 3.29443 | 24694 ft | 501 kts | 76° |
| 2026-05-06 15:28 | 48.90284 | 3.34493 | 25250 ft | 499 kts | 76° |
| 2026-05-06 15:29 | 48.91164 | 3.39582 | 25895 ft | 497 kts | 76° |
| 2026-05-06 15:29 | 48.92036 | 3.44646 | 26548 ft | 494 kts | 76° |
| 2026-05-06 15:29 | 48.92898 | 3.49684 | 27201 ft | 491 kts | 77° |
| 2026-05-06 15:29 | 48.93486 | 3.54777 | 27864 ft | 488 kts | 85° |
| 2026-05-06 15:30 | 48.93553 | 3.59903 | 28562 ft | 483 kts | 95° |
| 2026-05-06 15:30 | 48.93284 | 3.64982 | 29269 ft | 480 kts | 96° |
| 2026-05-06 15:30 | 48.93009 | 3.70022 | 29993 ft | 477 kts | 96° |
| 2026-05-06 15:30 | 48.92740 | 3.75033 | 30653 ft | 474 kts | 96° |
| 2026-05-06 15:31 | 48.92474 | 3.80053 | 31031 ft | 477 kts | 96° |
| 2026-05-06 15:31 | 48.92206 | 3.85087 | 31484 ft | 478 kts | 96° |
| 2026-05-06 15:31 | 48.91934 | 3.90126 | 31983 ft | 479 kts | 96° |
| 2026-05-06 15:32 | 48.91377 | 4.00145 | 32818 ft | 477 kts | 96° |
| 2026-05-06 15:32 | 48.91096 | 4.05156 | 32895 ft | 475 kts | 96° |
| 2026-05-06 15:32 | 48.90527 | 4.15140 | 32892 ft | 474 kts | 96° |
| 2026-05-06 15:33 | 48.89121 | 4.24854 | 32893 ft | 470 kts | 113° |
| 2026-05-06 15:33 | 48.86098 | 4.33631 | 32893 ft | 470 kts | 120° |
| 2026-05-06 15:34 | 48.82914 | 4.42291 | 32894 ft | 469 kts | 120° |
| 2026-05-06 15:34 | 48.79744 | 4.50946 | 32896 ft | 469 kts | 120° |
| 2026-05-06 15:35 | 48.76592 | 4.59526 | 32890 ft | 469 kts | 121° |
| 2026-05-06 15:35 | 48.73403 | 4.68137 | 32883 ft | 468 kts | 121° |
| 2026-05-06 15:36 | 48.70207 | 4.76732 | 32878 ft | 468 kts | 121° |
| 2026-05-06 15:36 | 48.67009 | 4.85318 | 32885 ft | 468 kts | 121° |
| 2026-05-06 15:37 | 48.63814 | 4.93878 | 32883 ft | 467 kts | 121° |
| 2026-05-06 15:37 | 48.60608 | 5.02411 | 32886 ft | 467 kts | 121° |
| 2026-05-06 15:38 | 48.57400 | 5.10935 | 32881 ft | 466 kts | 121° |
| 2026-05-06 15:38 | 48.54192 | 5.19450 | 32881 ft | 466 kts | 121° |
| 2026-05-06 15:39 | 48.50982 | 5.27941 | 32872 ft | 466 kts | 121° |
| 2026-05-06 15:39 | 48.47761 | 5.36424 | 32872 ft | 466 kts | 121° |
| 2026-05-06 15:40 | 48.44559 | 5.44831 | 32874 ft | 466 kts | 121° |
| 2026-05-06 15:40 | 48.41332 | 5.53288 | 32875 ft | 466 kts | 121° |
| 2026-05-06 15:41 | 48.38096 | 5.61745 | 32863 ft | 466 kts | 121° |
| 2026-05-06 15:41 | 48.34845 | 5.70182 | 32859 ft | 466 kts | 122° |
| 2026-05-06 15:42 | 48.32255 | 5.79100 | 32859 ft | 470 kts | 105° |
| 2026-05-06 15:42 | 48.31815 | 5.88894 | 32854 ft | 474 kts | 86° |
| 2026-05-06 15:43 | 48.32529 | 5.98688 | 32853 ft | 475 kts | 85° |
| 2026-05-06 15:43 | 48.33232 | 6.08565 | 32844 ft | 476 kts | 86° |
| 2026-05-06 15:44 | 48.33912 | 6.18460 | 32846 ft | 476 kts | 86° |
| 2026-05-06 15:44 | 48.34584 | 6.28363 | 32845 ft | 477 kts | 86° |
| 2026-05-06 15:45 | 48.35253 | 6.38288 | 32849 ft | 477 kts | 86° |
| 2026-05-06 15:45 | 48.35921 | 6.48217 | 32833 ft | 477 kts | 86° |
| 2026-05-06 15:46 | 48.36573 | 6.58089 | 32836 ft | 478 kts | 87° |
| 2026-05-06 15:46 | 48.37216 | 6.68042 | 32841 ft | 479 kts | 87° |
| 2026-05-06 15:47 | 48.37852 | 6.78006 | 32836 ft | 479 kts | 87° |
| 2026-05-06 15:47 | 48.38480 | 6.87978 | 32839 ft | 479 kts | 87° |
| 2026-05-06 15:48 | 48.39102 | 6.97952 | 32825 ft | 479 kts | 88° |
| 2026-05-06 15:48 | 48.39714 | 7.07944 | 32827 ft | 480 kts | 88° |
| 2026-05-06 15:49 | 48.40314 | 7.17887 | 32829 ft | 480 kts | 88° |
| 2026-05-06 15:49 | 48.40909 | 7.27892 | 32833 ft | 481 kts | 88° |
| 2026-05-06 15:50 | 48.41495 | 7.37922 | 32816 ft | 481 kts | 88° |
| 2026-05-06 15:50 | 48.42077 | 7.47963 | 32709 ft | 484 kts | 88° |
| 2026-05-06 15:51 | 48.42367 | 7.53006 | 32281 ft | 481 kts | 88° |
| 2026-05-06 15:51 | 48.42654 | 7.58023 | 32309 ft | 481 kts | 88° |
| 2026-05-06 15:51 | 48.42939 | 7.63048 | 32751 ft | 482 kts | 88° |
| 2026-05-06 15:51 | 48.43218 | 7.68106 | 32716 ft | 484 kts | 88° |
| 2026-05-06 15:52 | 48.43488 | 7.73067 | 31859 ft | 481 kts | 89° |
| 2026-05-06 15:52 | 48.43703 | 7.78083 | 30901 ft | 479 kts | 90° |
| 2026-05-06 15:52 | 48.43842 | 7.83082 | 29899 ft | 478 kts | 91° |
| 2026-05-06 15:52 | 48.43926 | 7.88071 | 28678 ft | 477 kts | 91° |
| 2026-05-06 15:53 | 48.43986 | 7.93071 | 27380 ft | 478 kts | 91° |
| 2026-05-06 15:53 | 48.44045 | 7.98081 | 26060 ft | 479 kts | 91° |
| 2026-05-06 15:53 | 48.44118 | 8.03090 | 25501 ft | 480 kts | 91° |
| 2026-05-06 15:53 | 48.44204 | 8.08130 | 25250 ft | 483 kts | 90° |
| 2026-05-06 15:54 | 48.44298 | 8.13200 | 25005 ft | 485 kts | 90° |
| 2026-05-06 15:54 | 48.44397 | 8.18277 | 24758 ft | 485 kts | 90° |
| 2026-05-06 15:54 | 48.44500 | 8.23364 | 24511 ft | 486 kts | 90° |
| 2026-05-06 15:54 | 48.44601 | 8.28456 | 24268 ft | 486 kts | 90° |
| 2026-05-06 15:55 | 48.44694 | 8.33539 | 24026 ft | 485 kts | 90° |
| 2026-05-06 15:55 | 48.44781 | 8.38611 | 23777 ft | 483 kts | 91° |
| 2026-05-06 15:55 | 48.44862 | 8.43585 | 23410 ft | 481 kts | 90° |
| 2026-05-06 15:55 | 48.44940 | 8.48608 | 22913 ft | 478 kts | 91° |
| 2026-05-06 15:56 | 48.45015 | 8.53600 | 22420 ft | 475 kts | 90° |
| 2026-05-06 15:56 | 48.45089 | 8.58550 | 21942 ft | 472 kts | 90° |
| 2026-05-06 15:56 | 48.45163 | 8.63478 | 21446 ft | 469 kts | 90° |
| 2026-05-06 15:56 | 48.45236 | 8.68373 | 21033 ft | 468 kts | 91° |
| 2026-05-06 15:57 | 48.45305 | 8.73276 | 20770 ft | 468 kts | 91° |
| 2026-05-06 15:57 | 48.45368 | 8.78164 | 20590 ft | 467 kts | 91° |
| 2026-05-06 15:57 | 48.45427 | 8.83050 | 20451 ft | 466 kts | 91° |
| 2026-05-06 15:57 | 48.45486 | 8.87932 | 20335 ft | 466 kts | 91° |
| 2026-05-06 15:58 | 48.45545 | 8.92798 | 20220 ft | 465 kts | 91° |
| 2026-05-06 15:58 | 48.45601 | 8.97665 | 20104 ft | 464 kts | 91° |
| 2026-05-06 15:58 | 48.45658 | 9.02519 | 19994 ft | 464 kts | 91° |
| 2026-05-06 15:58 | 48.45712 | 9.07378 | 19891 ft | 463 kts | 91° |
| 2026-05-06 15:59 | 48.45763 | 9.12225 | 19774 ft | 463 kts | 91° |
| 2026-05-06 15:59 | 48.45810 | 9.17072 | 19671 ft | 463 kts | 91° |
| 2026-05-06 15:59 | 48.45855 | 9.21845 | 19557 ft | 462 kts | 91° |
| 2026-05-06 15:59 | 48.45899 | 9.26692 | 19475 ft | 462 kts | 91° |
| 2026-05-06 16:00 | 48.45943 | 9.31544 | 19497 ft | 465 kts | 91° |
| 2026-05-06 16:00 | 48.45986 | 9.36423 | 20050 ft | 467 kts | 91° |
| 2026-05-06 16:00 | 48.46026 | 9.41237 | 19819 ft | 450 kts | 91° |
| 2026-05-06 16:00 | 48.46064 | 9.45850 | 19385 ft | 431 kts | 91° |
| 2026-05-06 16:01 | 48.46096 | 9.50281 | 18941 ft | 416 kts | 91° |
| 2026-05-06 16:01 | 48.46124 | 9.54570 | 18501 ft | 404 kts | 92° |
| 2026-05-06 16:01 | 48.46150 | 9.58747 | 18076 ft | 394 kts | 92° |
| 2026-05-06 16:01 | 48.46171 | 9.62827 | 17591 ft | 385 kts | 92° |
| 2026-05-06 16:02 | 48.46192 | 9.66803 | 17113 ft | 375 kts | 92° |
| 2026-05-06 16:02 | 48.46213 | 9.70690 | 16638 ft | 367 kts | 92° |
| 2026-05-06 16:02 | 48.46228 | 9.74459 | 16181 ft | 363 kts | 93° |
| 2026-05-06 16:02 | 48.46240 | 9.78226 | 15719 ft | 356 kts | 93° |
| 2026-05-06 16:03 | 48.46252 | 9.81920 | 15271 ft | 349 kts | 92° |
| 2026-05-06 16:03 | 48.46264 | 9.85550 | 14827 ft | 344 kts | 93° |
| 2026-05-06 16:03 | 48.46276 | 9.89120 | 14384 ft | 339 kts | 93° |
| 2026-05-06 16:03 | 48.46286 | 9.92654 | 13949 ft | 335 kts | 93° |
| 2026-05-06 16:04 | 48.46295 | 9.96147 | 13511 ft | 332 kts | 93° |
| 2026-05-06 16:04 | 48.46303 | 9.99609 | 13015 ft | 330 kts | 94° |
| 2026-05-06 16:04 | 48.46307 | 10.03049 | 12542 ft | 328 kts | 94° |
| 2026-05-06 16:04 | 48.46309 | 10.06483 | 12074 ft | 327 kts | 94° |
| 2026-05-06 16:05 | 48.46311 | 10.09901 | 11610 ft | 325 kts | 93° |
| 2026-05-06 16:05 | 48.46315 | 10.13300 | 11156 ft | 324 kts | 93° |
| 2026-05-06 16:05 | 48.46318 | 10.16684 | 10706 ft | 322 kts | 93° |
| 2026-05-06 16:05 | 48.46319 | 10.20048 | 10267 ft | 320 kts | 93° |
| 2026-05-06 16:06 | 48.46320 | 10.23347 | 9890 ft | 317 kts | 93° |
| 2026-05-06 16:06 | 48.46321 | 10.26603 | 9793 ft | 304 kts | 93° |
| 2026-05-06 16:06 | 48.46321 | 10.29698 | 9801 ft | 287 kts | 93° |
| 2026-05-06 16:06 | 48.46320 | 10.32633 | 9806 ft | 273 kts | 94° |
| 2026-05-06 16:07 | 48.46319 | 10.35419 | 9806 ft | 259 kts | 94° |
| 2026-05-06 16:07 | 48.46317 | 10.38064 | 9804 ft | 246 kts | 94° |
| 2026-05-06 16:07 | 48.46314 | 10.40569 | 9801 ft | 232 kts | 94° |
| 2026-05-06 16:07 | 48.46309 | 10.42924 | 9797 ft | 217 kts | 95° |
| 2026-05-06 16:08 | 48.46305 | 10.45124 | 9792 ft | 203 kts | 95° |
| 2026-05-06 16:08 | 48.46301 | 10.47173 | 9747 ft | 191 kts | 96° |
| 2026-05-06 16:08 | 48.46288 | 10.49200 | 9439 ft | 203 kts | 96° |
| 2026-05-06 16:08 | 48.46247 | 10.51457 | 10120 ft | 202 kts | 97° |
| 2026-05-06 16:09 | 48.46221 | 10.53354 | 11517 ft | 168 kts | 98° |
| 2026-05-06 16:09 | 48.46198 | 10.55130 | 12231 ft | 187 kts | 99° |
| 2026-05-06 16:09 | 48.46064 | 10.57339 | 12591 ft | 222 kts | 105° |
| 2026-05-06 16:09 | 48.46089 | 10.59485 | 14141 ft | 204 kts | 72° |
| 2026-05-06 16:10 | 48.46708 | 10.61495 | 14896 ft | 219 kts | 79° |
| 2026-05-06 16:10 | 48.46917 | 10.63792 | 15650 ft | 226 kts | 86° |
| 2026-05-06 16:10 | 48.47145 | 10.66390 | 15675 ft | 281 kts | 89° |
| 2026-05-06 16:10 | 48.47449 | 10.69633 | 15433 ft | 345 kts | 81° |
| 2026-05-06 16:11 | 48.48341 | 10.73314 | 15178 ft | 404 kts | 64° |
| 2026-05-06 16:11 | 48.50114 | 10.76921 | 14892 ft | 455 kts | 46° |
| 2026-05-06 16:11 | 48.52692 | 10.79950 | 15372 ft | 472 kts | 34° |
| 2026-05-06 16:11 | 48.55367 | 10.82740 | 17228 ft | 463 kts | 35° |
| 2026-05-06 16:12 | 48.57971 | 10.85531 | 18905 ft | 447 kts | 49° |
| 2026-05-06 16:12 | 48.59257 | 10.89258 | 21929 ft | 379 kts | 80° |
| 2026-05-06 16:12 | 48.59329 | 10.92842 | 24800 ft | 302 kts | 106° |
| 2026-05-06 16:12 | 48.58873 | 10.95552 | 27259 ft | 242 kts | 118° |
| 2026-05-06 16:13 | 48.58344 | 10.97978 | 27887 ft | 247 kts | 121° |
| 2026-05-06 16:13 | 48.57604 | 11.00375 | 28043 ft | 256 kts | 133° |
| 2026-05-06 16:13 | 48.56558 | 11.02468 | 28674 ft | 241 kts | 145° |
| 2026-05-06 16:13 | 48.55362 | 11.04063 | 29543 ft | 220 kts | 156° |
| 2026-05-06 16:14 | 48.54008 | 11.05270 | 29448 ft | 239 kts | 165° |
| 2026-05-06 16:14 | 48.52371 | 11.06157 | 29258 ft | 262 kts | 173° |
| 2026-05-06 16:14 | 48.50507 | 11.06646 | 29203 ft | 282 kts | 180° |
| 2026-05-06 16:14 | 48.48493 | 11.06698 | 29214 ft | 299 kts | 187° |
| 2026-05-06 16:15 | 48.46370 | 11.06288 | 29274 ft | 315 kts | 194° |
| 2026-05-06 16:15 | 48.44206 | 11.05410 | 29371 ft | 330 kts | 201° |
| 2026-05-06 16:15 | 48.42068 | 11.04087 | 29480 ft | 344 kts | 207° |
| 2026-05-06 16:15 | 48.39937 | 11.02289 | 29612 ft | 358 kts | 213° |
| 2026-05-06 16:16 | 48.37885 | 11.00048 | 29775 ft | 370 kts | 218° |
| 2026-05-06 16:16 | 48.35954 | 10.97392 | 29952 ft | 383 kts | 224° |
| 2026-05-06 16:16 | 48.34753 | 10.95413 | 30076 ft | 390 kts | 228° |
| 2026-05-06 16:16 | 48.33085 | 10.92125 | 30282 ft | 401 kts | 233° |
| 2026-05-06 16:17 | 48.31615 | 10.88507 | 30528 ft | 411 kts | 238° |
| 2026-05-06 16:17 | 48.30369 | 10.84602 | 30849 ft | 419 kts | 244° |
| 2026-05-06 16:17 | 48.29362 | 10.80437 | 31146 ft | 428 kts | 249° |
| 2026-05-06 16:17 | 48.28617 | 10.76079 | 31506 ft | 436 kts | 254° |
| 2026-05-06 16:18 | 48.28139 | 10.71548 | 31856 ft | 443 kts | 259° |
| 2026-05-06 16:18 | 48.27918 | 10.66936 | 32658 ft | 434 kts | 262° |
| 2026-05-06 16:18 | 48.27777 | 10.61483 | 36162 ft | 350 kts | 262° |
| 2026-05-06 16:18 | 48.27734 | 10.59197 | 38321 ft | 297 kts | 263° |
| 2026-05-06 16:19 | 48.27647 | 10.55250 | 39451 ft | 290 kts | 262° |
| 2026-05-06 16:19 | 48.27540 | 10.52112 | 39078 ft | 312 kts | 262° |
| 2026-05-06 16:19 | 48.27414 | 10.48772 | 38900 ft | 327 kts | 262° |
| 2026-05-06 16:19 | 48.27282 | 10.45333 | 39022 ft | 332 kts | 262° |
| 2026-05-06 16:20 | 48.27045 | 10.39475 | 38862 ft | 353 kts | 262° |
| 2026-05-06 16:20 | 48.26879 | 10.35680 | 38487 ft | 376 kts | 262° |
| 2026-05-06 16:20 | 48.26698 | 10.31653 | 38014 ft | 398 kts | 262° |
| 2026-05-06 16:21 | 48.26487 | 10.27403 | 37511 ft | 420 kts | 262° |
| 2026-05-06 16:21 | 48.26259 | 10.22930 | 37141 ft | 438 kts | 262° |
| 2026-05-06 16:21 | 48.25946 | 10.16747 | 36875 ft | 457 kts | 262° |
| 2026-05-06 16:21 | 48.25785 | 10.13552 | 37413 ft | 451 kts | 262° |
| 2026-05-06 16:22 | 48.25554 | 10.08916 | 38265 ft | 438 kts | 262° |
| 2026-05-06 16:22 | 48.25316 | 10.04412 | 38161 ft | 428 kts | 262° |
| 2026-05-06 16:22 | 48.25083 | 10.00063 | 37831 ft | 421 kts | 262° |
| 2026-05-06 16:22 | 48.24857 | 9.95711 | 37444 ft | 416 kts | 262° |
| 2026-05-06 16:23 | 48.24644 | 9.91413 | 37075 ft | 410 kts | 262° |
| 2026-05-06 16:23 | 48.24444 | 9.87172 | 36732 ft | 406 kts | 262° |
| 2026-05-06 16:23 | 48.24251 | 9.82973 | 36366 ft | 401 kts | 262° |
| 2026-05-06 16:23 | 48.24070 | 9.78825 | 36017 ft | 396 kts | 262° |
| 2026-05-06 16:24 | 48.23902 | 9.74728 | 35661 ft | 391 kts | 262° |
| 2026-05-06 16:24 | 48.23746 | 9.70682 | 35313 ft | 386 kts | 262° |
| 2026-05-06 16:24 | 48.23600 | 9.66689 | 34973 ft | 381 kts | 262° |
| 2026-05-06 16:24 | 48.23471 | 9.62752 | 34637 ft | 376 kts | 262° |
| 2026-05-06 16:25 | 48.23357 | 9.58866 | 34310 ft | 371 kts | 262° |
| 2026-05-06 16:25 | 48.23259 | 9.55029 | 33985 ft | 366 kts | 262° |
| 2026-05-06 16:25 | 48.23172 | 9.51224 | 33628 ft | 364 kts | 262° |
| 2026-05-06 16:25 | 48.23094 | 9.47453 | 33244 ft | 361 kts | 262° |
| 2026-05-06 16:26 | 48.23018 | 9.43703 | 32908 ft | 358 kts | 262° |
| 2026-05-06 16:26 | 48.22942 | 9.40029 | 32539 ft | 356 kts | 262° |
| 2026-05-06 16:26 | 48.22866 | 9.36334 | 32171 ft | 354 kts | 262° |
| 2026-05-06 16:26 | 48.22788 | 9.32649 | 31813 ft | 352 kts | 262° |
| 2026-05-06 16:27 | 48.22710 | 9.28981 | 31447 ft | 351 kts | 262° |
| 2026-05-06 16:27 | 48.22630 | 9.25334 | 31099 ft | 349 kts | 262° |
| 2026-05-06 16:27 | 48.22552 | 9.21705 | 30748 ft | 347 kts | 262° |
| 2026-05-06 16:27 | 48.22475 | 9.18108 | 30408 ft | 344 kts | 262° |
| 2026-05-06 16:28 | 48.22397 | 9.14542 | 30062 ft | 341 kts | 262° |
| 2026-05-06 16:28 | 48.22320 | 9.11001 | 29690 ft | 338 kts | 262° |
| 2026-05-06 16:28 | 48.22240 | 9.07487 | 29286 ft | 336 kts | 262° |
| 2026-05-06 16:28 | 48.22157 | 9.04010 | 28885 ft | 333 kts | 262° |
| 2026-05-06 16:29 | 48.22070 | 9.00556 | 28527 ft | 330 kts | 262° |
| 2026-05-06 16:29 | 48.21966 | 8.97128 | 28148 ft | 329 kts | 262° |
| 2026-05-06 16:29 | 48.21852 | 8.93710 | 27760 ft | 327 kts | 262° |
| 2026-05-06 16:29 | 48.21735 | 8.90358 | 27391 ft | 326 kts | 262° |
| 2026-05-06 16:30 | 48.21615 | 8.86978 | 27016 ft | 324 kts | 262° |
| 2026-05-06 16:30 | 48.21534 | 8.84704 | 26768 ft | 322 kts | 262° |
| 2026-05-06 16:30 | 48.21372 | 8.80272 | 26289 ft | 321 kts | 262° |
| 2026-05-06 16:30 | 48.21246 | 8.76940 | 25930 ft | 320 kts | 262° |
| 2026-05-06 16:31 | 48.21118 | 8.73624 | 25582 ft | 319 kts | 262° |
| 2026-05-06 16:31 | 48.20986 | 8.70313 | 25223 ft | 318 kts | 262° |
| 2026-05-06 16:31 | 48.20851 | 8.67006 | 24885 ft | 317 kts | 262° |
| 2026-05-06 16:31 | 48.20713 | 8.63712 | 24545 ft | 317 kts | 262° |
| 2026-05-06 16:32 | 48.20572 | 8.60418 | 24201 ft | 316 kts | 262° |
| 2026-05-06 16:32 | 48.20427 | 8.57130 | 23890 ft | 316 kts | 262° |
| 2026-05-06 16:32 | 48.20258 | 8.53845 | 23562 ft | 316 kts | 262° |
| 2026-05-06 16:32 | 48.20057 | 8.50620 | 23197 ft | 316 kts | 262° |
| 2026-05-06 16:33 | 48.19843 | 8.47343 | 22816 ft | 316 kts | 262° |
| 2026-05-06 16:33 | 48.19626 | 8.44072 | 22434 ft | 316 kts | 262° |
| 2026-05-06 16:33 | 48.19407 | 8.40792 | 22049 ft | 315 kts | 262° |
| 2026-05-06 16:34 | 48.18962 | 8.34272 | 21311 ft | 314 kts | 262° |
| 2026-05-06 16:34 | 48.18737 | 8.31022 | 20945 ft | 314 kts | 262° |
| 2026-05-06 16:34 | 48.18510 | 8.27774 | 20593 ft | 313 kts | 262° |
| 2026-05-06 16:34 | 48.18281 | 8.24536 | 20240 ft | 312 kts | 262° |
| 2026-05-06 16:35 | 48.18053 | 8.21306 | 19881 ft | 312 kts | 262° |
| 2026-05-06 16:35 | 48.17823 | 8.18082 | 19540 ft | 311 kts | 262° |
| 2026-05-06 16:35 | 48.17596 | 8.14914 | 19202 ft | 310 kts | 262° |
| 2026-05-06 16:35 | 48.17362 | 8.11707 | 18863 ft | 309 kts | 262° |
| 2026-05-06 16:36 | 48.17129 | 8.08511 | 18531 ft | 308 kts | 262° |
| 2026-05-06 16:36 | 48.16897 | 8.05327 | 18197 ft | 307 kts | 262° |
| 2026-05-06 16:36 | 48.16669 | 8.02145 | 17811 ft | 307 kts | 262° |
| 2026-05-06 16:36 | 48.16436 | 7.98975 | 17449 ft | 306 kts | 262° |
| 2026-05-06 16:37 | 48.16203 | 7.95841 | 17215 ft | 297 kts | 262° |
| 2026-05-06 16:37 | 48.15997 | 7.92873 | 16916 ft | 272 kts | 262° |
| 2026-05-06 16:37 | 48.15843 | 7.90309 | 16593 ft | 226 kts | 261° |
| 2026-05-06 16:37 | 48.15737 | 7.88122 | 16224 ft | 198 kts | 262° |
| 2026-05-06 16:38 | 48.15639 | 7.86169 | 15866 ft | 180 kts | 262° |
| 2026-05-06 16:38 | 48.15557 | 7.84365 | 15517 ft | 168 kts | 262° |
| 2026-05-06 16:38 | 48.15490 | 7.82687 | 15172 ft | 160 kts | 262° |
| 2026-05-06 16:38 | 48.15424 | 7.81058 | 14826 ft | 154 kts | 262° |
| 2026-05-06 16:39 | 48.15359 | 7.79484 | 14492 ft | 149 kts | 262° |
| 2026-05-06 16:39 | 48.15300 | 7.77953 | 14146 ft | 146 kts | 262° |
| 2026-05-06 16:39 | 48.15243 | 7.76448 | 13808 ft | 143 kts | 262° |
| 2026-05-06 16:39 | 48.15184 | 7.74970 | 13459 ft | 141 kts | 262° |
| 2026-05-06 16:40 | 48.15123 | 7.73510 | 13075 ft | 140 kts | 262° |
| 2026-05-06 16:40 | 48.15056 | 7.72014 | 12671 ft | 148 kts | 262° |
| 2026-05-06 16:40 | 48.15003 | 7.70249 | 11117 ft | 207 kts | 266° |
| 2026-05-06 16:40 | 48.14976 | 7.67740 | 9071 ft | 279 kts | 275° |
| 2026-05-06 16:41 | 48.15301 | 7.64578 | 6734 ft | 333 kts | 278° |
| 2026-05-06 16:41 | 48.15702 | 7.60935 | 4447 ft | 372 kts | 278° |
| 2026-05-06 16:41 | 48.15877 | 7.57083 | 3680 ft | 360 kts | 272° |
| 2026-05-06 16:41 | 48.15961 | 7.53487 | 2984 ft | 341 kts | 268° |
| 2026-05-06 16:42 | 48.15818 | 7.49904 | 2179 ft | 337 kts | 264° |
| 2026-05-06 16:42 | 48.15613 | 7.46300 | 1697 ft | 371 kts | 262° |
| 2026-05-06 16:42 | 48.15366 | 7.42507 | 2884 ft | 351 kts | 263° |
| 2026-05-06 16:42 | 48.14787 | 7.38953 | 1743 ft | 358 kts | 242° |
| 2026-05-06 16:43 | 48.13220 | 7.36325 | 1915 ft | 330 kts | 213° |
| 2026-05-06 16:43 | 48.11138 | 7.34932 | 1217 ft | 328 kts | 200° |
| 2026-05-06 16:43 | 48.09675 | 7.32662 | 1123 ft | 313 kts | 252° |
| 2026-05-06 16:43 | 48.08612 | 7.30813 | 2530 ft | 222 kts | 168° |
| 2026-05-06 16:44 | 48.07892 | 7.32580 | 2296 ft | 239 kts | 66° |
| 2026-05-06 16:44 | 48.09185 | 7.34537 | 888 ft | 278 kts | 37° |
| 2026-05-06 16:44 | 48.10718 | 7.35772 | 652 ft | 213 kts | 20° |
| 2026-05-06 16:44 | 48.11860 | 7.36174 | 724 ft | 139 kts | 34° |
| 2026-05-06 16:45 | 48.12086 | 7.36475 | 622 ft | 0 kts | 258° |